Omskiy-141 — UGZK — position and weather

sailwx.info

Track history (hours):
 
Tides and Currents Weather Stations Pressure Air Temp Water Temp Dewpoint Dewpoint Depression Visibility Wind Speed Wind Dir Waves Ship Positions

Omskiy-141

Last reported at 2014-Dec-20 15:32 UTC. Time now 2014-Dec-20 16:32 UTC.
Position N 53°24' E 014°36'.

Length 108 m; draft 3.3 m.

Type: Cargo ship. MMSI: 273310600.

Date/timePositionNaut miles runAvg speedWind from/ knotsBaromVisibWave heightAir tempDewpointWater temp
2014-Dec-20 15:32N 53°24' E 014°36'0 0.0
2014-Dec-20 14:32N 53°24' E 014°36'0 0.0
2014-Dec-20 13:32N 53°24' E 014°36'0 0.0
2014-Dec-20 12:32N 53°24' E 014°36'0 0.0
2014-Dec-20 11:32N 53°24' E 014°36'0 0.0
2014-Dec-20 10:32N 53°24' E 014°36'0 0.0
2014-Dec-20 09:32N 53°24' E 014°36'0 0.0
2014-Dec-20 08:32N 53°24' E 014°36'0 0.0
2014-Dec-20 07:29N 53°24' E 014°36'0 0.0
2014-Dec-20 06:32N 53°24' E 014°36'0 0.0
2014-Dec-20 05:32N 53°24' E 014°36'0 0.0
2014-Dec-20 04:32N 53°24' E 014°36'0 0.0
2014-Dec-20 03:32N 53°24' E 014°36'0 0.0
2014-Dec-20 02:32N 53°24' E 014°36'0 0.0
2014-Dec-20 01:32N 53°24' E 014°36'0 0.0
2014-Dec-20 00:32N 53°24' E 014°36'0 0.0
2014-Dec-19 23:29N 53°24' E 014°36'0 0.0
2014-Dec-19 22:32N 53°24' E 014°36'0 0.0
2014-Dec-19 21:32N 53°24' E 014°36'0 0.0
2014-Dec-19 19:32N 53°24' E 014°36'0 0.0
2014-Dec-19 18:32N 53°24' E 014°36'0 0.0
2014-Dec-19 17:32N 53°24' E 014°36'0 0.0
2014-Dec-19 16:32N 53°24' E 014°36'0 0.0
2014-Dec-19 15:32N 53°24' E 014°36'0 0.0
2014-Dec-19 14:32N 53°24' E 014°36'0 0.0
2014-Dec-19 13:32N 53°24' E 014°36'0 0.0
2014-Dec-19 12:32N 53°24' E 014°36'0 0.0
2014-Dec-19 11:32N 53°24' E 014°36'0 0.0
2014-Dec-19 10:32N 53°24' E 014°36'0 0.0
2014-Dec-19 09:32N 53°24' E 014°36'0 0.0
2014-Dec-19 08:32N 53°24' E 014°36'0 0.0
2014-Dec-19 07:32N 53°24' E 014°36'0 0.0
2014-Dec-19 06:32N 53°24' E 014°36'0 0.0
2014-Dec-19 05:32N 53°24' E 014°36'0 0.0
2014-Dec-19 04:32N 53°24' E 014°36'0 0.0
2014-Dec-19 03:32N 53°24' E 014°36'0 0.0
2014-Dec-19 02:32N 53°24' E 014°36'0 0.0
2014-Dec-19 01:32N 53°24' E 014°36'0 0.0
2014-Dec-19 00:32N 53°24' E 014°36'5 5.6
2014-Dec-18 23:33N 53°30' E 014°37'8 7.5
2014-Dec-18 22:33N 53°37' E 014°35'8 7.7
2014-Dec-18 21:33N 53°43' E 014°27'8 7.9
2014-Dec-18 20:33N 53°49' E 014°19'6 5.9
2014-Dec-18 19:34N 53°55' E 014°17'7 6.5
2014-Dec-18 18:33N 54°02' E 014°18'8 7.9
2014-Dec-18 17:33N 54°06' E 014°29'  
2014-Dec-13 08:15N 54°11' E 014°41'6 8.9
2014-Dec-13 07:33N 54°06' E 014°33'9 8.5
2014-Dec-13 06:33N 54°01' E 014°22'3 2.7
2014-Dec-13 05:33N 53°59' E 014°19'0 0.0
2014-Dec-13 04:33N 53°59' E 014°19'0 0.0
2014-Dec-13 03:33N 53°59' E 014°19'0 0.0
2014-Dec-13 02:33N 53°59' E 014°19'0 0.0
2014-Dec-13 01:30N 53°59' E 014°19'0 0.0
2014-Dec-13 00:30N 53°59' E 014°19'0 0.0
2014-Dec-12 23:33N 53°59' E 014°19'0 0.0
2014-Dec-12 22:27N 53°59' E 014°19'0 0.0
2014-Dec-12 21:33N 53°59' E 014°19'0 0.0
2014-Dec-12 20:33N 53°59' E 014°19'0 0.0
2014-Dec-12 19:30N 53°59' E 014°19'0 0.0
2014-Dec-12 18:30N 53°59' E 014°19'0 0.0
2014-Dec-12 17:33N 53°59' E 014°19'0 0.0
2014-Dec-12 16:33N 53°59' E 014°18'0 0.0
2014-Dec-12 15:33N 53°59' E 014°18'0 0.0
2014-Dec-12 14:33N 53°59' E 014°18'0 0.0
2014-Dec-12 13:30N 53°59' E 014°18'0 0.0
2014-Dec-12 12:30N 53°59' E 014°18'0 0.0
2014-Dec-12 11:30N 53°59' E 014°18'0 0.0
2014-Dec-12 10:33N 53°59' E 014°18'0 0.0
2014-Dec-12 09:33N 53°59' E 014°18'0 0.0
2014-Dec-12 08:30N 53°59' E 014°18'0 0.0
2014-Dec-12 07:33N 53°59' E 014°19'0 0.0
2014-Dec-12 06:33N 53°59' E 014°18'0 0.0
2014-Dec-12 05:33N 53°59' E 014°19'0 0.0
2014-Dec-12 04:33N 53°59' E 014°19'0 0.0
2014-Dec-12 03:33N 53°59' E 014°19'0 0.0
2014-Dec-12 02:33N 53°59' E 014°19'0 0.0
2014-Dec-12 01:33N 53°59' E 014°19'0 0.0
2014-Dec-12 00:30N 53°59' E 014°19'0 0.0
2014-Dec-11 23:30N 53°59' E 014°19'0 0.0
2014-Dec-11 22:30N 53°59' E 014°19'0 0.3
2014-Dec-11 21:34N 53°59' E 014°19'7 7.0
2014-Dec-11 20:33N 53°52' E 014°17'8 8.0
2014-Dec-11 19:33N 53°46' E 014°24'9 8.7
2014-Dec-11 18:33N 53°39' E 014°33'4 4.3
2014-Dec-11 17:33N 53°34' E 014°34'0 0.0
2014-Dec-11 16:30N 53°34' E 014°34'0 0.0
2014-Dec-11 15:27N 53°34' E 014°34'0 0.0
2014-Dec-11 14:33N 53°34' E 014°34'0 0.0
2014-Dec-11 13:30N 53°34' E 014°34'0 0.0
2014-Dec-11 12:30N 53°34' E 014°34'0 0.0
2014-Dec-11 11:24N 53°34' E 014°34'0 0.0
2014-Dec-11 10:30N 53°34' E 014°34'0 0.0
2014-Dec-11 09:30N 53°34' E 014°34'0 0.0
2014-Dec-11 08:30N 53°34' E 014°34'0 0.0
2014-Dec-11 07:33N 53°34' E 014°34'0 0.0
2014-Dec-11 06:30N 53°34' E 014°34'0 0.0
2014-Dec-11 05:30N 53°34' E 014°34'0 0.0
2014-Dec-11 04:30N 53°34' E 014°34'0 0.0
2014-Dec-11 03:30N 53°34' E 014°34'0 0.0
2014-Dec-11 02:33N 53°34' E 014°34'0 0.0
2014-Dec-11 01:30N 53°34' E 014°34'0 0.0
2014-Dec-11 00:33N 53°34' E 014°34'0 0.0
2014-Dec-10 23:30N 53°34' E 014°34'0 0.0
2014-Dec-10 22:30N 53°34' E 014°34'0 0.0
2014-Dec-10 21:30N 53°34' E 014°34'0 0.0
2014-Dec-10 20:24N 53°34' E 014°34'0 0.0
2014-Dec-10 19:30N 53°34' E 014°34'0 0.0
2014-Dec-10 18:30N 53°34' E 014°34'0 0.0
2014-Dec-10 17:30N 53°34' E 014°34'0 0.0
2014-Dec-10 16:33N 53°34' E 014°34'  
Track history (hours):
 
Tides and Currents Weather Stations Pressure Air Temp Water Temp Dewpoint Dewpoint Depression Visibility Wind Speed Wind Dir Waves Ship Positions

Omskiy-141

Last reported at 2014-Dec-20 15:32 UTC. Time now 2014-Dec-20 16:32 UTC.
Position N 53°24' E 014°36'.

Length 108 m; draft 3.3 m.

Type: Cargo ship. MMSI: 273310600.

Date/timePositionNaut miles runAvg speedWind from/ knotsBaromVisibWave heightAir tempDewpointWater temp
2014-Dec-20 15:32N 53°24' E 014°36'0 0.0
2014-Dec-20 14:32N 53°24' E 014°36'0 0.0
2014-Dec-20 13:32N 53°24' E 014°36'0 0.0
2014-Dec-20 12:32N 53°24' E 014°36'0 0.0
2014-Dec-20 11:32N 53°24' E 014°36'0 0.0
2014-Dec-20 10:32N 53°24' E 014°36'0 0.0
2014-Dec-20 09:32N 53°24' E 014°36'0 0.0
2014-Dec-20 08:32N 53°24' E 014°36'0 0.0
2014-Dec-20 07:29N 53°24' E 014°36'0 0.0
2014-Dec-20 06:32N 53°24' E 014°36'0 0.0
2014-Dec-20 05:32N 53°24' E 014°36'0 0.0
2014-Dec-20 04:32N 53°24' E 014°36'0 0.0
2014-Dec-20 03:32N 53°24' E 014°36'0 0.0
2014-Dec-20 02:32N 53°24' E 014°36'0 0.0
2014-Dec-20 01:32N 53°24' E 014°36'0 0.0
2014-Dec-20 00:32N 53°24' E 014°36'0 0.0
2014-Dec-19 23:29N 53°24' E 014°36'0 0.0
2014-Dec-19 22:32N 53°24' E 014°36'0 0.0
2014-Dec-19 21:32N 53°24' E 014°36'0 0.0
2014-Dec-19 19:32N 53°24' E 014°36'0 0.0
2014-Dec-19 18:32N 53°24' E 014°36'0 0.0
2014-Dec-19 17:32N 53°24' E 014°36'0 0.0
2014-Dec-19 16:32N 53°24' E 014°36'0 0.0
2014-Dec-19 15:32N 53°24' E 014°36'0 0.0
2014-Dec-19 14:32N 53°24' E 014°36'0 0.0
2014-Dec-19 13:32N 53°24' E 014°36'0 0.0
2014-Dec-19 12:32N 53°24' E 014°36'0 0.0
2014-Dec-19 11:32N 53°24' E 014°36'0 0.0
2014-Dec-19 10:32N 53°24' E 014°36'0 0.0
2014-Dec-19 09:32N 53°24' E 014°36'0 0.0
2014-Dec-19 08:32N 53°24' E 014°36'0 0.0
2014-Dec-19 07:32N 53°24' E 014°36'0 0.0
2014-Dec-19 06:32N 53°24' E 014°36'0 0.0
2014-Dec-19 05:32N 53°24' E 014°36'0 0.0
2014-Dec-19 04:32N 53°24' E 014°36'0 0.0
2014-Dec-19 03:32N 53°24' E 014°36'0 0.0
2014-Dec-19 02:32N 53°24' E 014°36'0 0.0
2014-Dec-19 01:32N 53°24' E 014°36'0 0.0
2014-Dec-19 00:32N 53°24' E 014°36'5 5.6
2014-Dec-18 23:33N 53°30' E 014°37'8 7.5
2014-Dec-18 22:33N 53°37' E 014°35'8 7.7
2014-Dec-18 21:33N 53°43' E 014°27'8 7.9
2014-Dec-18 20:33N 53°49' E 014°19'6 5.9
2014-Dec-18 19:34N 53°55' E 014°17'7 6.5
2014-Dec-18 18:33N 54°02' E 014°18'8 7.9
2014-Dec-18 17:33N 54°06' E 014°29'  
2014-Dec-13 08:15N 54°11' E 014°41'6 8.9
2014-Dec-13 07:33N 54°06' E 014°33'9 8.5
2014-Dec-13 06:33N 54°01' E 014°22'3 2.7
2014-Dec-13 05:33N 53°59' E 014°19'0 0.0
2014-Dec-13 04:33N 53°59' E 014°19'0 0.0
2014-Dec-13 03:33N 53°59' E 014°19'0 0.0
2014-Dec-13 02:33N 53°59' E 014°19'0 0.0
2014-Dec-13 01:30N 53°59' E 014°19'0 0.0
2014-Dec-13 00:30N 53°59' E 014°19'0 0.0
2014-Dec-12 23:33N 53°59' E 014°19'0 0.0
2014-Dec-12 22:27N 53°59' E 014°19'0 0.0
2014-Dec-12 21:33N 53°59' E 014°19'0 0.0
2014-Dec-12 20:33N 53°59' E 014°19'0 0.0
2014-Dec-12 19:30N 53°59' E 014°19'0 0.0
2014-Dec-12 18:30N 53°59' E 014°19'0 0.0
2014-Dec-12 17:33N 53°59' E 014°19'0 0.0
2014-Dec-12 16:33N 53°59' E 014°18'0 0.0
2014-Dec-12 15:33N 53°59' E 014°18'0 0.0
2014-Dec-12 14:33N 53°59' E 014°18'0 0.0
2014-Dec-12 13:30N 53°59' E 014°18'0 0.0
2014-Dec-12 12:30N 53°59' E 014°18'0 0.0
2014-Dec-12 11:30N 53°59' E 014°18'0 0.0
2014-Dec-12 10:33N 53°59' E 014°18'0 0.0
2014-Dec-12 09:33N 53°59' E 014°18'0 0.0
2014-Dec-12 08:30N 53°59' E 014°18'0 0.0
2014-Dec-12 07:33N 53°59' E 014°19'0 0.0
2014-Dec-12 06:33N 53°59' E 014°18'0 0.0
2014-Dec-12 05:33N 53°59' E 014°19'0 0.0
2014-Dec-12 04:33N 53°59' E 014°19'0 0.0
2014-Dec-12 03:33N 53°59' E 014°19'0 0.0
2014-Dec-12 02:33N 53°59' E 014°19'0 0.0
2014-Dec-12 01:33N 53°59' E 014°19'0 0.0
2014-Dec-12 00:30N 53°59' E 014°19'0 0.0
2014-Dec-11 23:30N 53°59' E 014°19'0 0.0
2014-Dec-11 22:30N 53°59' E 014°19'0 0.3
2014-Dec-11 21:34N 53°59' E 014°19'7 7.0
2014-Dec-11 20:33N 53°52' E 014°17'8 8.0
2014-Dec-11 19:33N 53°46' E 014°24'9 8.7
2014-Dec-11 18:33N 53°39' E 014°33'4 4.3
2014-Dec-11 17:33N 53°34' E 014°34'0 0.0
2014-Dec-11 16:30N 53°34' E 014°34'0 0.0
2014-Dec-11 15:27N 53°34' E 014°34'0 0.0
2014-Dec-11 14:33N 53°34' E 014°34'0 0.0
2014-Dec-11 13:30N 53°34' E 014°34'0 0.0
2014-Dec-11 12:30N 53°34' E 014°34'0 0.0
2014-Dec-11 11:24N 53°34' E 014°34'0 0.0
2014-Dec-11 10:30N 53°34' E 014°34'0 0.0
2014-Dec-11 09:30N 53°34' E 014°34'0 0.0
2014-Dec-11 08:30N 53°34' E 014°34'0 0.0
2014-Dec-11 07:33N 53°34' E 014°34'0 0.0
2014-Dec-11 06:30N 53°34' E 014°34'0 0.0
2014-Dec-11 05:30N 53°34' E 014°34'0 0.0
2014-Dec-11 04:30N 53°34' E 014°34'0 0.0
2014-Dec-11 03:30N 53°34' E 014°34'0 0.0
2014-Dec-11 02:33N 53°34' E 014°34'0 0.0
2014-Dec-11 01:30N 53°34' E 014°34'0 0.0
2014-Dec-11 00:33N 53°34' E 014°34'0 0.0
2014-Dec-10 23:30N 53°34' E 014°34'0 0.0
2014-Dec-10 22:30N 53°34' E 014°34'0 0.0
2014-Dec-10 21:30N 53°34' E 014°34'0 0.0
2014-Dec-10 20:24N 53°34' E 014°34'0 0.0
2014-Dec-10 19:30N 53°34' E 014°34'0 0.0
2014-Dec-10 18:30N 53°34' E 014°34'0 0.0
2014-Dec-10 17:30N 53°34' E 014°34'0 0.0
2014-Dec-10 16:33N 53°34' E 014°34'  

Dump ship's entire track history